createdAt,value
2018-06-09T00:00:25.934Z,17.50
2018-06-09T00:02:54.134Z,17.50
2018-06-09T00:05:22.369Z,17.40
2018-06-09T00:07:52.845Z,17.30
2018-06-09T00:10:21.058Z,17.30
2018-06-09T00:12:49.317Z,17.20
2018-06-09T00:15:17.526Z,17.40
2018-06-09T00:17:46.063Z,17.40
2018-06-09T00:20:14.249Z,17.40
2018-06-09T00:22:42.481Z,17.30
2018-06-09T00:25:11.290Z,17.20
2018-06-09T00:27:39.466Z,17.20
2018-06-09T00:32:35.957Z,17.30
2018-06-09T00:35:04.794Z,17.40
2018-06-09T00:37:34.162Z,17.40
2018-06-09T00:40:03.701Z,17.50
2018-06-09T00:42:32.101Z,17.30
2018-06-09T00:45:00.582Z,17.20
2018-06-09T00:47:28.825Z,17.30
2018-06-09T00:49:57.441Z,17.30
2018-06-09T00:52:26.198Z,17.20
2018-06-09T00:54:54.376Z,17.10
2018-06-09T00:57:22.593Z,17.10
2018-06-09T00:59:50.820Z,17.20
2018-06-09T01:02:19.654Z,17.30
2018-06-09T01:04:47.859Z,17.20
2018-06-09T01:07:16.062Z,17.20
2018-06-09T01:09:44.272Z,17.30
2018-06-09T01:12:13.393Z,17.20
2018-06-09T01:14:42.205Z,17.20
2018-06-09T01:17:10.483Z,17.30
2018-06-09T01:19:39.949Z,17.30
2018-06-09T01:22:08.202Z,17.30
2018-06-09T01:24:36.434Z,17.20
2018-06-09T01:27:04.688Z,17.10
2018-06-09T01:29:32.937Z,17.00
2018-06-09T01:32:01.122Z,17.00
2018-06-09T01:34:30.271Z,17.10
2018-06-09T01:36:58.986Z,17.10
2018-06-09T01:39:27.209Z,17.10
2018-06-09T01:41:55.506Z,17.00
2018-06-09T01:44:23.753Z,17.10
2018-06-09T01:46:52.068Z,17.10
2018-06-09T01:49:20.679Z,17.10
2018-06-09T01:51:48.894Z,17.10
2018-06-09T01:54:17.112Z,17.00
2018-06-09T01:56:45.294Z,17.10
2018-06-09T01:59:13.473Z,17.10
2018-06-09T02:01:42.210Z,17.00
2018-06-09T02:04:10.453Z,17.00
2018-06-09T02:06:39.106Z,17.00
2018-06-09T02:09:08.965Z,17.00
2018-06-09T02:11:37.162Z,16.90
2018-06-09T02:14:07.265Z,16.90
2018-06-09T02:16:35.486Z,16.90
2018-06-09T02:19:03.685Z,16.90
2018-06-09T02:21:31.910Z,16.80
2018-06-09T02:24:00.116Z,16.80
2018-06-09T02:26:29.302Z,16.80
2018-06-09T02:28:58.089Z,16.80
2018-06-09T02:31:26.388Z,16.80
2018-06-09T02:33:54.658Z,16.80
2018-06-09T02:36:24.106Z,16.80
2018-06-09T02:38:52.519Z,16.90
2018-06-09T02:41:21.178Z,16.90
2018-06-09T02:43:49.754Z,17.00
2018-06-09T02:46:18.249Z,17.00
2018-06-09T02:48:46.497Z,17.00
2018-06-09T02:51:14.709Z,16.90
2018-06-09T02:53:42.913Z,16.80
2018-06-09T02:56:11.205Z,16.80
2018-06-09T02:58:39.509Z,16.80
2018-06-09T03:01:08.590Z,16.80
2018-06-09T03:03:36.782Z,16.80
2018-06-09T03:06:05.007Z,16.80
2018-06-09T03:08:33.769Z,16.70
2018-06-09T03:11:02.594Z,16.70
2018-06-09T03:13:31.258Z,16.70
2018-06-09T03:15:59.485Z,16.70
2018-06-09T03:18:28.498Z,16.60
2018-06-09T03:20:57.114Z,16.60
2018-06-09T03:23:26.530Z,16.60
2018-06-09T03:25:54.809Z,16.50
2018-06-09T03:28:23.020Z,16.60
2018-06-09T03:30:51.240Z,16.70
2018-06-09T03:33:19.774Z,16.80
2018-06-09T03:35:48.872Z,16.80
2018-06-09T03:38:17.173Z,16.80
2018-06-09T03:40:45.424Z,16.70
2018-06-09T03:43:14.115Z,16.70
2018-06-09T03:45:42.319Z,16.70
2018-06-09T03:48:10.513Z,16.70
2018-06-09T03:50:38.787Z,16.70
2018-06-09T03:53:07.386Z,16.60
2018-06-09T03:55:35.882Z,16.60
2018-06-09T03:58:05.250Z,16.60
2018-06-09T04:00:33.426Z,16.60
2018-06-09T04:03:01.998Z,16.70
2018-06-09T04:05:30.248Z,16.60
2018-06-09T04:07:59.141Z,16.60
2018-06-09T04:10:27.373Z,16.60
2018-06-09T04:12:55.934Z,16.70
2018-06-09T04:15:24.157Z,16.80
2018-06-09T04:17:53.330Z,17.20
2018-06-09T04:20:21.505Z,17.50
2018-06-09T04:22:50.633Z,17.80
2018-06-09T04:25:19.353Z,18.00
2018-06-09T04:27:47.560Z,18.10
2018-06-09T04:30:17.757Z,18.10
2018-06-09T04:32:45.971Z,18.30
2018-06-09T04:35:14.207Z,18.40
2018-06-09T04:37:43.265Z,18.60
2018-06-09T04:40:12.064Z,18.80
2018-06-09T04:42:40.269Z,19.00
2018-06-09T04:45:08.470Z,19.30
2018-06-09T04:47:36.725Z,19.50
2018-06-09T04:50:05.123Z,19.80
2018-06-09T04:52:33.833Z,20.10
2018-06-09T04:55:02.419Z,20.40
2018-06-09T04:57:32.206Z,20.70
2018-06-09T05:00:00.376Z,20.90
2018-06-09T05:02:28.576Z,21.20
2018-06-09T05:04:56.805Z,21.50
2018-06-09T05:07:25.087Z,21.90
2018-06-09T05:09:53.317Z,22.40
2018-06-09T05:12:21.523Z,22.90
2018-06-09T05:14:49.741Z,23.20
2018-06-09T05:17:17.961Z,23.40
2018-06-09T05:19:47.058Z,23.40
2018-06-09T05:22:15.272Z,23.40
2018-06-09T05:24:43.533Z,23.10
2018-06-09T05:27:11.766Z,22.90
2018-06-09T05:29:40.005Z,22.70
2018-06-09T05:32:08.758Z,22.70
2018-06-09T05:34:37.402Z,22.70
2018-06-09T05:37:05.589Z,22.80
2018-06-09T05:39:33.844Z,22.90
2018-06-09T05:42:02.058Z,22.80
2018-06-09T05:44:32.022Z,22.70
2018-06-09T05:47:00.235Z,22.70
2018-06-09T05:49:28.488Z,22.70
2018-06-09T05:51:57.529Z,22.70
2018-06-09T05:54:25.720Z,22.90
2018-06-09T05:56:53.942Z,23.10
2018-06-09T05:59:22.150Z,23.30
2018-06-09T06:01:50.354Z,23.40
2018-06-09T06:04:18.591Z,23.50
2018-06-09T06:06:47.137Z,23.70
2018-06-09T06:09:17.851Z,23.80
2018-06-09T06:11:46.100Z,23.80
2018-06-09T06:14:14.273Z,23.70
2018-06-09T06:16:42.527Z,23.80
2018-06-09T06:19:10.713Z,23.90
2018-06-09T06:21:38.917Z,23.90
2018-06-09T06:24:07.449Z,23.90
2018-06-09T06:26:37.166Z,24.10
2018-06-09T06:29:05.429Z,24.20
2018-06-09T06:31:33.629Z,24.30
2018-06-09T06:34:01.862Z,24.50
2018-06-09T06:36:30.094Z,24.70
2018-06-09T06:38:58.343Z,24.80
2018-06-09T06:41:26.522Z,25.10
2018-06-09T06:43:54.728Z,25.40
2018-06-09T06:46:22.940Z,25.60
2018-06-09T06:48:51.137Z,25.90
2018-06-09T06:51:19.369Z,26.20
2018-06-09T06:53:47.605Z,26.80
2018-06-09T06:56:16.223Z,27.40
2018-06-09T06:58:44.865Z,28.10
2018-06-09T07:01:13.430Z,28.70
2018-06-09T07:03:41.606Z,29.20
2018-06-09T07:06:09.830Z,29.30
2018-06-09T07:08:38.069Z,29.30
2018-06-09T07:11:06.286Z,29.10
2018-06-09T07:13:36.087Z,29.10
2018-06-09T07:16:04.366Z,29.30
2018-06-09T07:18:33.605Z,29.50
2018-06-09T07:21:01.790Z,29.50
2018-06-09T07:23:29.978Z,29.80
2018-06-09T07:25:58.649Z,30.30
2018-06-09T07:28:26.884Z,30.80
2018-06-09T07:30:55.935Z,31.30
2018-06-09T07:33:24.121Z,31.70
2018-06-09T07:35:52.353Z,31.80
2018-06-09T07:38:20.580Z,31.40
2018-06-09T07:40:48.797Z,31.20
2018-06-09T07:43:17.019Z,31.00
2018-06-09T07:45:46.302Z,31.00
2018-06-09T07:48:14.498Z,31.00
2018-06-09T07:50:42.690Z,31.40
2018-06-09T07:53:11.726Z,31.70
2018-06-09T07:55:39.946Z,32.10
2018-06-09T07:58:08.178Z,32.20
2018-06-09T08:00:37.315Z,32.50
2018-06-09T08:03:06.109Z,32.60
2018-06-09T08:05:34.390Z,32.70
2018-06-09T08:08:03.546Z,32.80
2018-06-09T08:10:31.837Z,33.10
2018-06-09T08:13:01.770Z,33.10
2018-06-09T08:15:30.294Z,33.30
2018-06-09T08:17:59.506Z,33.50
2018-06-09T08:20:28.054Z,33.70
2018-06-09T08:22:56.664Z,34.20
2018-06-09T08:25:25.137Z,34.40
2018-06-09T08:27:53.380Z,34.60
2018-06-09T08:32:49.571Z,35.20
2018-06-09T08:35:17.790Z,34.50
2018-06-09T08:37:46.604Z,33.80
2018-06-09T08:40:15.434Z,34.00
2018-06-09T08:42:44.204Z,34.40
2018-06-09T08:45:12.402Z,34.60
2018-06-09T08:47:40.625Z,34.80
2018-06-09T08:50:08.924Z,35.10
2018-06-09T08:52:37.158Z,35.30
2018-06-09T08:55:05.921Z,35.70
2018-06-09T08:57:36.051Z,36.10
2018-06-09T09:00:04.301Z,36.40
2018-06-09T09:02:32.535Z,36.50
2018-06-09T09:05:00.891Z,36.80
2018-06-09T09:07:29.621Z,37.20
2018-06-09T09:09:57.790Z,37.50
2018-06-09T09:12:26.051Z,37.40
2018-06-09T09:14:54.293Z,37.40
2018-06-09T09:17:22.833Z,37.60
2018-06-09T09:19:51.058Z,37.50
2018-06-09T09:22:19.277Z,37.50
2018-06-09T09:24:47.518Z,36.30
2018-06-09T09:27:15.777Z,36.50
2018-06-09T09:29:43.954Z,37.20
2018-06-09T09:32:12.285Z,37.90
2018-06-09T09:34:40.555Z,38.50
2018-06-09T09:37:08.798Z,38.70
2018-06-09T09:39:37.069Z,39.10
2018-06-09T09:42:05.590Z,39.20
2018-06-09T09:44:33.830Z,39.30
2018-06-09T09:47:02.560Z,39.40
2018-06-09T09:49:31.822Z,39.60
2018-06-09T09:52:00.015Z,39.80
2018-06-09T09:54:28.238Z,40.20
2018-06-09T09:56:56.441Z,40.40
2018-06-09T09:59:25.549Z,40.30
2018-06-09T10:01:53.766Z,40.30
2018-06-09T10:04:22.022Z,40.50
2018-06-09T10:06:50.266Z,40.80
2018-06-09T10:09:18.488Z,41.00
2018-06-09T10:11:46.708Z,41.00
2018-06-09T10:14:16.891Z,41.10
2018-06-09T10:16:45.127Z,41.10
2018-06-09T10:19:13.310Z,41.00
2018-06-09T10:21:41.527Z,41.10
2018-06-09T10:24:10.125Z,41.40
2018-06-09T10:26:39.214Z,41.70
2018-06-09T10:29:07.439Z,42.00
2018-06-09T10:31:36.350Z,42.00
2018-06-09T10:34:04.512Z,42.10
2018-06-09T10:36:33.058Z,42.40
2018-06-09T10:39:01.234Z,42.40
2018-06-09T10:41:29.378Z,42.10
2018-06-09T10:43:57.621Z,41.50
2018-06-09T10:46:25.853Z,40.20
2018-06-09T10:48:54.667Z,39.60
2018-06-09T10:51:24.010Z,40.20
2018-06-09T10:53:53.135Z,40.90
2018-06-09T10:56:21.326Z,41.30
2018-06-09T10:58:49.502Z,41.30
2018-06-09T11:01:17.710Z,42.30
2018-06-09T11:03:45.914Z,42.60
2018-06-09T11:06:14.098Z,42.90
2018-06-09T11:08:43.622Z,43.40
2018-06-09T11:11:11.870Z,43.10
2018-06-09T11:13:40.126Z,43.10
2018-06-09T11:16:08.353Z,42.00
2018-06-09T11:18:36.529Z,41.90
2018-06-09T11:21:05.122Z,41.20
2018-06-09T11:23:33.301Z,40.90
2018-06-09T11:26:01.756Z,40.90
2018-06-09T11:28:29.977Z,40.60
2018-06-09T11:30:58.378Z,40.80
2018-06-09T11:33:26.545Z,40.90
2018-06-09T11:35:54.772Z,41.00
2018-06-09T11:38:23.963Z,40.80
2018-06-09T11:40:52.198Z,41.20
2018-06-09T11:43:20.405Z,41.10
2018-06-09T11:45:49.286Z,41.50
2018-06-09T11:48:17.531Z,41.60
2018-06-09T11:50:46.414Z,40.90
2018-06-09T11:53:14.647Z,40.40
2018-06-09T11:55:44.834Z,40.00
2018-06-09T11:58:13.033Z,39.90
2018-06-09T12:00:41.277Z,39.90
2018-06-09T12:03:09.491Z,40.10
2018-06-09T12:05:40.300Z,40.40
2018-06-09T12:08:08.869Z,40.10
2018-06-09T12:10:37.068Z,40.10
2018-06-09T12:13:05.270Z,40.70
2018-06-09T12:15:33.459Z,41.20
2018-06-09T12:18:01.948Z,41.00
2018-06-09T12:20:30.220Z,41.60
2018-06-09T12:22:58.395Z,41.90
2018-06-09T12:25:27.020Z,41.90
2018-06-09T12:27:55.254Z,41.70
2018-06-09T12:30:23.900Z,41.90
2018-06-09T12:32:52.079Z,41.80
2018-06-09T12:35:20.262Z,41.70
2018-06-09T12:37:48.501Z,41.70
2018-06-09T12:40:16.714Z,42.00
2018-06-09T12:42:44.930Z,42.30
2018-06-09T12:45:13.107Z,42.80
2018-06-09T12:47:41.367Z,42.60
2018-06-09T12:50:10.290Z,42.60
2018-06-09T12:52:38.515Z,42.20
2018-06-09T12:55:06.742Z,42.50
2018-06-09T12:57:34.971Z,42.70
2018-06-09T13:00:03.852Z,43.10
2018-06-09T13:02:32.439Z,43.50
2018-06-09T13:05:03.230Z,43.10
2018-06-09T13:07:31.438Z,43.10
2018-06-09T13:10:00.035Z,43.30
2018-06-09T13:12:28.535Z,43.60
2018-06-09T13:14:56.746Z,44.10
2018-06-09T13:17:24.987Z,44.10
2018-06-09T13:19:53.151Z,44.10
2018-06-09T13:22:21.335Z,44.10
2018-06-09T13:24:49.593Z,44.20
2018-06-09T13:27:17.784Z,43.80
2018-06-09T13:29:46.435Z,44.00
2018-06-09T13:32:14.667Z,44.20
2018-06-09T13:34:42.902Z,44.30
2018-06-09T13:37:11.308Z,43.80
2018-06-09T13:39:39.478Z,43.70
2018-06-09T13:42:08.257Z,43.80
2018-06-09T13:44:37.139Z,44.20
2018-06-09T13:47:06.341Z,44.50
2018-06-09T13:49:35.177Z,44.50
2018-06-09T13:52:04.114Z,44.00
2018-06-09T13:54:32.399Z,43.70
2018-06-09T13:57:00.570Z,43.40
2018-06-09T13:59:28.801Z,42.30
2018-06-09T14:01:57.030Z,40.20
2018-06-09T14:04:25.540Z,37.10
2018-06-09T14:06:54.410Z,35.60
2018-06-09T14:09:22.855Z,34.60
2018-06-09T14:11:51.065Z,34.20
2018-06-09T14:14:19.258Z,33.70
2018-06-09T14:16:47.464Z,32.90
2018-06-09T14:19:15.714Z,32.50
2018-06-09T14:21:44.585Z,31.70
2018-06-09T14:24:14.270Z,31.00
2018-06-09T14:26:42.510Z,30.90
2018-06-09T14:29:10.748Z,30.60
2018-06-09T14:31:39.892Z,30.70
2018-06-09T14:34:08.190Z,31.30
2018-06-09T14:36:36.434Z,31.60
2018-06-09T14:39:07.187Z,31.50
2018-06-09T14:41:35.517Z,31.40
2018-06-09T14:44:03.726Z,31.50
2018-06-09T14:46:31.910Z,31.30
2018-06-09T14:49:00.134Z,31.00
2018-06-09T14:51:28.861Z,30.90
2018-06-09T14:53:57.082Z,30.50
2018-06-09T14:56:26.127Z,30.20
2018-06-09T14:58:54.354Z,29.70
2018-06-09T15:01:23.790Z,29.10
2018-06-09T15:03:52.207Z,28.60
2018-06-09T15:06:20.696Z,28.10
2018-06-09T15:08:48.933Z,28.20
2018-06-09T15:13:46.726Z,28.40
2018-06-09T15:18:45.011Z,28.50
2018-06-09T15:21:13.518Z,28.30
2018-06-09T15:23:41.734Z,27.80
2018-06-09T15:26:10.550Z,26.40
2018-06-09T15:28:39.149Z,23.60
2018-06-09T15:31:07.369Z,21.90
2018-06-09T15:33:35.574Z,21.30
2018-06-09T15:36:03.762Z,20.90
2018-06-09T15:38:31.985Z,20.60
2018-06-09T15:41:01.327Z,20.10
2018-06-09T15:43:29.546Z,19.70
2018-06-09T15:45:57.770Z,18.90
2018-06-09T15:48:26.486Z,18.20
2018-06-09T15:50:54.694Z,17.80
2018-06-09T15:53:22.911Z,17.80
2018-06-09T15:55:51.150Z,17.80
2018-06-09T15:58:19.508Z,17.90
2018-06-09T16:00:48.513Z,17.80
2018-06-09T16:03:16.774Z,17.60
2018-06-09T16:05:44.989Z,17.60
2018-06-09T16:08:14.203Z,17.60
2018-06-09T16:10:42.463Z,17.70
2018-06-09T16:13:11.319Z,17.80
2018-06-09T16:15:40.418Z,17.80
2018-06-09T16:18:08.639Z,17.80
2018-06-09T16:20:36.879Z,18.00
2018-06-09T16:23:05.210Z,18.10
2018-06-09T16:25:34.221Z,18.20
2018-06-09T16:28:02.490Z,18.40
2018-06-09T16:30:31.082Z,18.70
2018-06-09T16:32:59.430Z,18.90
2018-06-09T16:35:27.690Z,19.00
2018-06-09T16:37:55.910Z,19.00
2018-06-09T16:40:24.096Z,19.00
2018-06-09T16:42:52.340Z,19.20
2018-06-09T16:45:20.603Z,19.30
2018-06-09T16:47:48.886Z,19.60
2018-06-09T16:50:18.178Z,19.80
2018-06-09T16:52:46.418Z,20.00
2018-06-09T16:55:14.657Z,20.10
2018-06-09T16:57:42.854Z,20.40
2018-06-09T17:00:11.132Z,20.60
2018-06-09T17:02:39.567Z,20.70
2018-06-09T17:05:07.796Z,20.80
2018-06-09T17:07:35.989Z,21.20
2018-06-09T17:10:04.171Z,21.60
2018-06-09T17:12:32.401Z,21.80
2018-06-09T17:15:01.470Z,21.70
2018-06-09T17:17:29.738Z,21.70
2018-06-09T17:19:58.006Z,21.70
2018-06-09T17:22:26.590Z,21.90
2018-06-09T17:24:55.770Z,22.30
2018-06-09T17:27:24.013Z,22.70
2018-06-09T17:29:52.230Z,23.10
2018-06-09T17:32:21.319Z,23.40
2018-06-09T17:34:49.530Z,23.50
2018-06-09T17:37:17.734Z,23.70
2018-06-09T17:39:46.786Z,23.80
2018-06-09T17:42:14.974Z,23.80
2018-06-09T17:44:43.399Z,23.60
2018-06-09T17:47:11.593Z,23.50
2018-06-09T17:49:39.843Z,23.20
2018-06-09T17:52:08.075Z,22.90
2018-06-09T17:54:36.800Z,22.50
2018-06-09T17:57:05.039Z,22.10
2018-06-09T17:59:33.852Z,21.80
2018-06-09T18:02:02.330Z,21.80
2018-06-09T18:04:31.075Z,21.80
2018-06-09T18:06:59.323Z,22.00
2018-06-09T18:09:27.570Z,22.30
2018-06-09T18:11:56.182Z,22.40
2018-06-09T18:14:24.386Z,22.50
2018-06-09T18:16:52.643Z,22.60
2018-06-09T18:19:20.989Z,22.40
2018-06-09T18:21:49.198Z,22.30
2018-06-09T18:24:17.395Z,22.30
2018-06-09T18:26:45.935Z,22.20
2018-06-09T18:29:14.151Z,22.00
2018-06-09T18:31:42.381Z,21.90
2018-06-09T18:34:10.592Z,21.70
2018-06-09T18:36:39.665Z,21.80
2018-06-09T18:39:09.150Z,21.80
2018-06-09T18:41:37.634Z,21.70
2018-06-09T18:44:05.846Z,21.50
2018-06-09T18:46:34.081Z,21.40
2018-06-09T18:49:02.333Z,21.20
2018-06-09T18:51:30.539Z,20.90
2018-06-09T18:53:58.743Z,20.80
2018-06-09T18:56:27.762Z,20.60
2018-06-09T18:58:55.993Z,20.60
2018-06-09T19:01:24.529Z,20.40
2018-06-09T19:03:52.690Z,20.20
2018-06-09T19:06:20.901Z,20.10
2018-06-09T19:08:50.164Z,20.00
2018-06-09T19:11:18.347Z,20.00
2018-06-09T19:13:46.557Z,20.00
2018-06-09T19:16:14.938Z,19.90
2018-06-09T19:18:43.406Z,19.90
2018-06-09T19:21:12.614Z,19.90
2018-06-09T19:23:40.810Z,19.80
2018-06-09T19:26:09.098Z,19.60
2018-06-09T19:28:37.286Z,19.50
2018-06-09T19:31:05.495Z,19.60
2018-06-09T19:33:34.934Z,19.50
2018-06-09T19:36:03.930Z,19.40
2018-06-09T19:38:32.169Z,19.40
2018-06-09T19:41:00.409Z,19.50
2018-06-09T19:43:28.614Z,19.70
2018-06-09T19:45:57.926Z,19.80
2018-06-09T19:48:26.204Z,19.60
2018-06-09T19:50:54.414Z,19.60
2018-06-09T19:53:23.718Z,19.50
2018-06-09T19:55:51.927Z,19.50
2018-06-09T19:58:20.203Z,19.50
2018-06-09T20:00:49.007Z,19.50
2018-06-09T20:03:29.164Z,19.40
2018-06-09T20:05:57.390Z,19.30
2018-06-09T20:08:26.014Z,19.30
2018-06-09T20:10:54.214Z,19.30
2018-06-09T20:13:22.746Z,19.40
2018-06-09T20:15:52.129Z,19.50
2018-06-09T20:18:20.354Z,19.50
2018-06-09T20:20:49.158Z,19.30
2018-06-09T20:23:17.757Z,19.20
2018-06-09T20:25:45.952Z,19.20
2018-06-09T20:28:14.870Z,19.10
2018-06-09T20:33:11.111Z,19.30
2018-06-09T20:35:40.866Z,19.20
2018-06-09T20:38:09.057Z,19.20
2018-06-09T20:40:37.242Z,19.00
2018-06-09T20:43:05.474Z,19.10
2018-06-09T20:45:34.351Z,19.00
2018-06-09T20:48:05.290Z,19.10
2018-06-09T20:50:33.496Z,19.20
2018-06-09T20:53:01.650Z,19.40
2018-06-09T20:55:29.899Z,19.40
2018-06-09T20:57:58.116Z,19.40
2018-06-09T21:00:26.894Z,19.30
2018-06-09T21:02:55.073Z,19.30
2018-06-09T21:05:23.564Z,19.30
2018-06-09T21:07:51.788Z,19.20
2018-06-09T21:10:19.990Z,19.10
2018-06-09T21:12:48.477Z,19.00
2018-06-09T21:15:16.676Z,19.00
2018-06-09T21:17:44.882Z,18.90
2018-06-09T21:20:13.089Z,18.90
2018-06-09T21:22:42.181Z,18.90
2018-06-09T21:25:11.210Z,18.60
2018-06-09T21:27:45.505Z,18.40
2018-06-09T21:30:16.614Z,18.50
2018-06-09T21:32:52.970Z,18.70
2018-06-09T21:35:39.321Z,18.90
2018-06-09T21:38:12.978Z,18.90
2018-06-09T21:40:48.288Z,18.80
2018-06-09T21:43:23.262Z,18.70
2018-06-09T21:45:52.038Z,18.60
2018-06-09T21:48:21.447Z,18.50
2018-06-09T21:50:50.250Z,18.70
2018-06-09T21:55:46.413Z,18.50
2018-06-09T21:58:14.643Z,18.10
2018-06-09T22:00:42.850Z,17.80
2018-06-09T22:03:12.387Z,17.80
2018-06-09T22:05:40.609Z,17.80
2018-06-09T22:08:08.794Z,17.70
2018-06-09T22:10:37.013Z,17.80
2018-06-09T22:13:05.399Z,17.90
2018-06-09T22:15:34.263Z,18.00
2018-06-09T22:18:03.712Z,18.10
2018-06-09T22:20:31.913Z,18.20
2018-06-09T22:23:00.174Z,18.10
2018-06-09T22:25:34.567Z,18.00
2018-06-09T22:28:02.895Z,17.80
2018-06-09T22:30:31.137Z,17.90
2018-06-09T22:32:59.450Z,18.10
2018-06-09T22:35:27.655Z,18.00
2018-06-09T22:37:55.856Z,18.00
2018-06-09T22:40:24.065Z,17.90
2018-06-09T22:42:53.136Z,17.90
2018-06-09T22:45:21.321Z,17.90
2018-06-09T22:47:49.847Z,17.70
2018-06-09T22:50:18.867Z,17.50
2018-06-09T22:52:47.045Z,17.50
2018-06-09T22:55:15.745Z,17.50
2018-06-09T22:57:44.014Z,17.50
2018-06-09T23:00:23.606Z,17.60
2018-06-09T23:02:52.143Z,17.70
2018-06-09T23:05:20.314Z,17.70
2018-06-09T23:07:48.534Z,17.70
2018-06-09T23:10:17.610Z,17.70
2018-06-09T23:12:45.870Z,17.80
2018-06-09T23:15:14.131Z,17.80
2018-06-09T23:17:42.362Z,17.80
2018-06-09T23:20:10.559Z,17.70
2018-06-09T23:22:38.833Z,17.40
2018-06-09T23:25:07.055Z,17.30
2018-06-09T23:27:35.294Z,17.40
2018-06-09T23:30:04.415Z,17.60
2018-06-09T23:32:32.627Z,17.60
2018-06-09T23:35:01.837Z,17.50
2018-06-09T23:37:30.408Z,17.60
2018-06-09T23:39:58.663Z,17.70
2018-06-09T23:42:27.834Z,17.70
2018-06-09T23:44:56.001Z,17.70
2018-06-09T23:47:24.217Z,17.80
2018-06-09T23:49:52.450Z,17.80
2018-06-09T23:52:20.693Z,17.70
2018-06-09T23:54:49.421Z,17.70
2018-06-09T23:57:17.604Z,17.90
2018-06-09T23:59:45.834Z,17.90
